Time;durP1;ratioP1;P1;durP2;ratioP2;P2;SDS_P1;SDS_P2;PMS_P1;PMS_P2;Temp;Humidity;BMP_temperature;BMP_pressure;BME280_temperature;BME280_humidity;BME280_pressure;Samples;Min_cycle;Max_cycle;Signal;HPM_P1;HPM_P2
2021/11/17 02:26:00;;;;;;;62.15;21.23;;;;;;;;;;5070706;28;20067;-70
2021/11/17 02:28:32;;;;;;;67.60;22.25;;;;;;;;;;5062528;28;20060;-71
2021/11/17 02:31:17;;;;;;;64.45;22.00;;;;;;;;;;5066816;28;20052;-71
2021/11/17 02:33:59;;;;;;;60.53;21.48;;;;;;;;;;5059431;28;20106;-71
2021/11/17 02:36:28;;;;;;;61.00;23.10;;;;;;;;;;5070736;28;20048;-71
2021/11/17 02:39:07;;;;;;;55.72;20.40;;;;;;;;;;5064186;28;20059;-70
2021/11/17 02:41:49;;;;;;;64.30;22.73;;;;;;;;;;5070377;28;20047;-71
2021/11/17 02:44:34;;;;;;;62.38;21.45;;;;;;;;;;5065976;28;20041;-71
2021/11/17 02:47:06;;;;;;;59.67;20.83;;;;;;;;;;5047793;28;20057;-71
2021/11/17 02:49:32;;;;;;;62.08;22.30;;;;;;;;;;5069844;28;20060;-71
2021/11/17 02:52:14;;;;;;;59.83;21.13;;;;;;;;;;5063886;28;20065;-71
2021/11/17 02:54:44;;;;;;;63.58;23.40;;;;;;;;;;5051281;28;20048;-71
2021/11/17 02:57:20;;;;;;;67.63;21.77;;;;;;;;;;5062991;28;20044;-71
2021/11/17 02:59:49;;;;;;;71.85;23.58;;;;;;;;;;5062217;28;20066;-71
2021/11/17 03:02:20;;;;;;;63.97;21.63;;;;;;;;;;5062425;28;20058;-71
2021/11/17 03:05:06;;;;;;;61.72;22.02;;;;;;;;;;5070171;28;20493;-71
2021/11/17 03:07:32;;;;;;;64.20;22.77;;;;;;;;;;5063650;28;20076;-71
2021/11/17 03:10:17;;;;;;;64.32;22.75;;;;;;;;;;5070406;28;20060;-71
2021/11/17 03:12:49;;;;;;;55.95;20.50;;;;;;;;;;5061781;28;20045;-71
2021/11/17 03:15:32;;;;;;;60.10;22.02;;;;;;;;;;5066289;28;20059;-71
2021/11/17 03:18:01;;;;;;;61.63;23.40;;;;;;;;;;5069492;28;20092;-70
2021/11/17 03:20:43;;;;;;;61.47;21.67;;;;;;;;;;5063044;28;20056;-71
2021/11/17 03:23:15;;;;;;;58.28;22.40;;;;;;;;;;5052595;28;20052;-71
2021/11/17 03:25:52;;;;;;;57.10;20.90;;;;;;;;;;5057729;28;20512;-71
2021/11/17 03:28:27;;;;;;;62.42;23.15;;;;;;;;;;5063760;28;20053;-71
2021/11/17 03:31:19;;;;;;;62.00;22.08;;;;;;;;;;5063588;28;20055;-72
2021/11/17 03:33:45;;;;;;;57.72;21.08;;;;;;;;;;5069266;28;20052;-71
2021/11/17 03:36:23;;;;;;;53.70;21.00;;;;;;;;;;5062223;28;20064;-71
2021/11/17 03:38:59;;;;;;;60.50;21.48;;;;;;;;;;5067008;28;20059;-71
2021/11/17 03:41:25;;;;;;;54.17;19.92;;;;;;;;;;5057980;28;20161;-71
2021/11/17 03:44:10;;;;;;;56.15;21.42;;;;;;;;;;5068302;28;20083;-71
2021/11/17 03:46:48;;;;;;;62.45;22.40;;;;;;;;;;5051127;28;20048;-72
2021/11/17 03:49:30;;;;;;;56.67;22.52;;;;;;;;;;5068124;28;20052;-71
2021/11/17 03:52:06;;;;;;;61.92;23.48;;;;;;;;;;5069008;28;20056;-71
2021/11/17 03:54:56;;;;;;;57.67;22.08;;;;;;;;;;5058844;28;20045;-71
2021/11/17 03:57:35;;;;;;;51.92;20.48;;;;;;;;;;5053765;28;20052;-71
2021/11/17 04:00:10;;;;;;;55.10;20.73;;;;;;;;;;5056230;28;20049;-71
2021/11/17 04:02:46;;;;;;;61.65;22.13;;;;;;;;;;5066378;28;20048;-72
2021/11/17 04:05:20;;;;;;;57.42;21.38;;;;;;;;;;5044025;28;20056;-71
2021/11/17 04:07:58;;;;;;;55.38;19.38;;;;;;;;;;5064562;28;20044;-71
2021/11/17 04:10:25;;;;;;;;;;;;;;;;;;5059033;28;20053;-72
2021/11/17 04:13:00;;;;;;;52.72;20.02;;;;;;;;;;5068007;28;19924;-72
2021/11/17 04:15:39;;;;;;;64.18;22.15;;;;;;;;;;5062027;28;20059;-70
2021/11/17 04:18:20;;;;;;;64.18;22.30;;;;;;;;;;5068792;28;20055;-71
2021/11/17 04:20:54;;;;;;;57.42;21.48;;;;;;;;;;5061682;28;20489;-71
2021/11/17 04:23:28;;;;;;;56.72;21.75;;;;;;;;;;5051052;28;20051;-72
2021/11/17 04:25:57;;;;;;;63.33;22.20;;;;;;;;;;5068520;28;20058;-72
2021/11/17 04:28:31;;;;;;;72.30;21.98;;;;;;;;;;5060459;28;20154;-71
2021/11/17 04:30:57;;;;;;;64.72;23.05;;;;;;;;;;5065652;28;20060;-71
2021/11/17 04:33:44;;;;;;;59.38;21.83;;;;;;;;;;5054440;28;20075;-72
2021/11/17 04:36:16;;;;;;;58.92;21.33;;;;;;;;;;5050164;28;20127;-72
2021/11/17 04:39:09;;;;;;;62.42;22.38;;;;;;;;;;5061967;28;20497;-72
2021/11/17 04:41:42;;;;;;;54.63;20.85;;;;;;;;;;5049882;28;20127;-71
2021/11/17 04:44:09;;;;;;;54.38;19.83;;;;;;;;;;5062178;28;20079;-71
2021/11/17 04:46:35;;;;;;;63.65;21.40;;;;;;;;;;5063684;28;20632;-71
2021/11/17 04:49:20;;;;;;;67.85;21.77;;;;;;;;;;5057422;28;20421;-71
2021/11/17 04:51:52;;;;;;;59.42;20.63;;;;;;;;;;5068304;28;20386;-72
2021/11/17 04:54:22;;;;;;;61.20;21.88;;;;;;;;;;5043999;28;20053;-71
2021/11/17 04:57:07;;;;;;;59.80;21.02;;;;;;;;;;5067130;28;20044;-72
2021/11/17 04:59:33;;;;;;;58.92;20.40;;;;;;;;;;5063792;28;20262;-71
2021/11/17 05:02:11;;;;;;;65.50;21.70;;;;;;;;;;5055700;28;20071;-72
2021/11/17 05:04:43;;;;;;;62.75;20.70;;;;;;;;;;5068394;28;20087;-71
2021/11/17 05:07:13;;;;;;;63.30;20.60;;;;;;;;;;5061369;28;20044;-71
2021/11/17 05:09:48;;;;;;;57.95;21.50;;;;;;;;;;5067247;28;20056;-71
2021/11/17 05:12:16;;;;;;;63.00;20.98;;;;;;;;;;5060927;28;20779;-71
2021/11/17 05:14:48;;;;;;;63.10;21.35;;;;;;;;;;5060573;28;20464;-71
2021/11/17 05:17:18;;;;;;;60.47;21.88;;;;;;;;;;5060829;28;20413;-71
2021/11/17 05:20:04;;;;;;;58.58;20.75;;;;;;;;;;5066854;28;20040;-71
2021/11/17 05:22:34;;;;;;;57.13;19.90;;;;;;;;;;5060819;28;20049;-71
2021/11/17 05:25:20;;;;;;;61.95;21.67;;;;;;;;;;5066084;28;20049;-71
2021/11/17 05:27:56;;;;;;;56.60;20.10;;;;;;;;;;5011656;28;20048;-71
2021/11/17 05:30:23;;;;;;;63.30;19.67;;;;;;;;;;5038493;28;20052;-71
2021/11/17 05:33:08;;;;;;;56.58;20.55;;;;;;;;;;5067238;28;20060;-71
2021/11/17 05:35:34;;;;;;;51.75;19.08;;;;;;;;;;5060287;28;20485;-71
2021/11/17 05:38:13;;;;;;;58.63;20.00;;;;;;;;;;5067404;28;20414;-71
2021/11/17 05:40:54;;;;;;;55.85;20.08;;;;;;;;;;5039760;28;20067;-71
2021/11/17 05:43:21;;;;;;;58.90;18.95;;;;;;;;;;5063324;28;20059;-71
2021/11/17 05:45:54;;;;;;;51.35;18.60;;;;;;;;;;5059801;28;20529;-71
2021/11/17 05:48:20;;;;;;;54.33;19.60;;;;;;;;;;5049242;28;20110;-71
2021/11/17 05:50:56;;;;;;;52.85;19.80;;;;;;;;;;5060196;28;20048;-71
2021/11/17 05:53:45;;;;;;;54.30;18.88;;;;;;;;;;5049432;28;20075;-71
2021/11/17 05:56:11;;;;;;;;;;;;;;;;;;5059867;28;20048;-72
2021/11/17 05:58:49;;;;;;;57.47;19.45;;;;;;;;;;5059562;28;19924;-71
2021/11/17 06:01:29;;;;;;;55.20;18.65;;;;;;;;;;5067186;28;20050;-72
2021/11/17 06:03:56;;;;;;;63.78;20.08;;;;;;;;;;5060110;28;20049;-71
2021/11/17 06:06:23;;;;;;;56.33;19.80;;;;;;;;;;5068441;28;20052;-72
2021/11/17 06:08:50;;;;;;;57.08;18.45;;;;;;;;;;5066374;28;20052;-71
2021/11/17 06:11:17;;;;;;;55.95;21.30;;;;;;;;;;5067475;28;20053;-71
2021/11/17 06:13:44;;;;;;;55.45;18.08;;;;;;;;;;5061557;28;20095;-71
2021/11/17 06:16:10;;;;;;;56.17;19.05;;;;;;;;;;5067684;28;20054;-71
2021/11/17 06:18:37;;;;;;;61.95;20.63;;;;;;;;;;5067516;28;20052;-71
2021/11/17 06:21:06;;;;;;;60.05;20.60;;;;;;;;;;5060332;28;20052;-71
2021/11/17 06:23:35;;;;;;;59.63;19.42;;;;;;;;;;5059010;28;20390;-71
2021/11/17 06:26:05;;;;;;;56.78;19.38;;;;;;;;;;5053522;28;20321;-71
2021/11/17 06:28:31;;;;;;;65.35;20.33;;;;;;;;;;5064746;28;20044;-71
2021/11/17 06:30:58;;;;;;;67.97;21.55;;;;;;;;;;5042538;28;20425;-71
2021/11/17 06:33:25;;;;;;;57.63;19.35;;;;;;;;;;5049199;28;20070;-72
2021/11/17 06:35:51;;;;;;;53.03;19.02;;;;;;;;;;5059864;28;20059;-71
2021/11/17 06:38:19;;;;;;;59.28;20.40;;;;;;;;;;5061538;28;20044;-72
2021/11/17 06:40:47;;;;;;;56.05;19.92;;;;;;;;;;5065667;28;20044;-71
2021/11/17 06:43:13;;;;;;;56.03;19.00;;;;;;;;;;5063078;28;20045;-71
2021/11/17 06:45:40;;;;;;;56.10;19.58;;;;;;;;;;5069801;28;20040;-71
2021/11/17 06:48:06;;;;;;;61.10;20.13;;;;;;;;;;5064714;28;20044;-71
2021/11/17 06:50:33;;;;;;;57.20;19.48;;;;;;;;;;5065500;28;20055;-71
2021/11/17 06:53:00;;;;;;;57.70;19.80;;;;;;;;;;5058651;28;20048;-71
2021/11/17 06:55:26;;;;;;;60.10;20.17;;;;;;;;;;5069353;28;20612;-71
2021/11/17 06:57:53;;;;;;;58.00;21.05;;;;;;;;;;5069747;28;20286;-71
2021/11/17 07:00:25;;;;;;;57.67;20.10;;;;;;;;;;5046424;28;20048;-71
2021/11/17 07:02:51;;;;;;;56.42;19.63;;;;;;;;;;5069379;28;20063;-71
2021/11/17 07:05:19;;;;;;;51.90;18.63;;;;;;;;;;5040738;28;20040;-71
2021/11/17 07:07:45;;;;;;;55.10;18.73;;;;;;;;;;5065194;28;20075;-71
2021/11/17 07:10:13;;;;;;;59.17;20.85;;;;;;;;;;5060847;28;20052;-71
2021/11/17 07:12:40;;;;;;;60.22;20.15;;;;;;;;;;5069186;28;20520;-71
2021/11/17 07:15:07;;;;;;;51.70;18.10;;;;;;;;;;5069822;28;20790;-71
2021/11/17 07:17:33;;;;;;;49.15;17.90;;;;;;;;;;5046559;28;20055;-71
2021/11/17 07:19:59;;;;;;;56.80;19.38;;;;;;;;;;5062946;28;20059;-71
2021/11/17 07:22:25;;;;;;;51.88;19.70;;;;;;;;;;5059275;28;20064;-71
2021/11/17 07:24:52;;;;;;;54.97;21.13;;;;;;;;;;5067905;28;20054;-72
2021/11/17 07:27:20;;;;;;;61.53;20.23;;;;;;;;;;5058389;28;20036;-71
2021/11/17 07:29:46;;;;;;;56.67;19.40;;;;;;;;;;5061076;28;20048;-71
2021/11/17 07:32:12;;;;;;;65.68;21.05;;;;;;;;;;5062038;28;20497;-71
2021/11/17 07:34:39;;;;;;;57.88;20.73;;;;;;;;;;5065477;28;20052;-71
2021/11/17 07:37:06;;;;;;;57.38;19.38;;;;;;;;;;5069801;28;20056;-71
2021/11/17 07:39:32;;;;;;;60.58;21.02;;;;;;;;;;5062893;28;20048;-71
2021/11/17 07:41:58;;;;;;;54.50;19.30;;;;;;;;;;5050967;28;20052;-71
2021/11/17 07:44:25;;;;;;;61.92;22.25;;;;;;;;;;5060327;28;20138;-71
2021/11/17 07:46:53;;;;;;;56.17;20.75;;;;;;;;;;5043853;28;20087;-71
2021/11/17 07:49:19;;;;;;;65.60;21.63;;;;;;;;;;5061801;28;20060;-71
2021/11/17 07:51:46;;;;;;;71.18;21.60;;;;;;;;;;5069298;28;20053;-71
2021/11/17 07:54:14;;;;;;;71.05;22.90;;;;;;;;;;5068212;28;20085;-71
2021/11/17 07:56:41;;;;;;;66.78;21.10;;;;;;;;;;5060980;28;20070;-71
2021/11/17 07:59:08;;;;;;;67.85;21.20;;;;;;;;;;5064537;28;20053;-71
2021/11/17 08:01:35;;;;;;;67.57;23.27;;;;;;;;;;5056955;28;20051;-72
2021/11/17 08:04:02;;;;;;;64.22;21.52;;;;;;;;;;5069281;28;20048;-71
2021/11/17 08:06:29;;;;;;;72.85;23.63;;;;;;;;;;5062856;28;20410;-71
2021/11/17 08:08:56;;;;;;;74.50;23.27;;;;;;;;;;5068451;28;20413;-72
2021/11/17 08:11:23;;;;;;;71.93;24.05;;;;;;;;;;5067518;28;20044;-72
2021/11/17 08:13:49;;;;;;;67.45;21.77;;;;;;;;;;5046022;28;20060;-72
2021/11/17 08:16:16;;;;;;;65.30;22.23;;;;;;;;;;5068017;28;20058;-71
2021/11/17 08:18:42;;;;;;;73.00;24.90;;;;;;;;;;5033882;28;21011;-71
2021/11/17 08:21:10;;;;;;;69.55;23.20;;;;;;;;;;5057175;28;20068;-71
2021/11/17 08:23:36;;;;;;;69.70;23.92;;;;;;;;;;5052690;28;20064;-72
2021/11/17 08:26:03;;;;;;;75.82;24.77;;;;;;;;;;5054645;28;20048;-72
2021/11/17 08:28:29;;;;;;;72.90;22.98;;;;;;;;;;5052493;28;20048;-73
2021/11/17 08:30:56;;;;;;;78.13;25.20;;;;;;;;;;5049870;28;20048;-70
2021/11/17 08:33:23;;;;;;;80.93;24.88;;;;;;;;;;5057773;28;20048;-70
2021/11/17 08:35:49;;;;;;;79.15;24.27;;;;;;;;;;5049148;28;20048;-71
2021/11/17 08:38:18;;;;;;;78.18;23.45;;;;;;;;;;5057664;28;20107;-71
2021/11/17 08:40:52;;;;;;;78.32;26.58;;;;;;;;;;5045550;28;20064;-73
2021/11/17 08:43:19;;;;;;;95.85;25.48;;;;;;;;;;5056150;28;20052;-70
2021/11/17 08:45:48;;;;;;;85.72;24.27;;;;;;;;;;5056925;28;20048;-71
2021/11/17 08:48:16;;;;;;;75.28;25.15;;;;;;;;;;5033604;28;20470;-72
2021/11/17 08:50:42;;;;;;;85.68;26.33;;;;;;;;;;5057328;28;20049;-73
2021/11/17 08:53:10;;;;;;;84.90;26.35;;;;;;;;;;5029586;28;20055;-72
2021/11/17 08:55:37;;;;;;;85.68;27.40;;;;;;;;;;5051964;28;20067;-72
2021/11/17 08:58:05;;;;;;;90.38;27.30;;;;;;;;;;5049197;28;20429;-72
2021/11/17 09:00:31;;;;;;;87.07;26.20;;;;;;;;;;5056338;28;20075;-72
2021/11/17 09:02:59;;;;;;;84.07;25.42;;;;;;;;;;5048265;28;20052;-73
2021/11/17 09:05:28;;;;;;;90.40;27.38;;;;;;;;;;5055716;28;20145;-72
2021/11/17 09:07:55;;;;;;;86.72;26.17;;;;;;;;;;5049469;28;20067;-72
2021/11/17 09:10:22;;;;;;;80.05;25.33;;;;;;;;;;5046021;28;20052;-72
2021/11/17 09:12:49;;;;;;;93.77;27.73;;;;;;;;;;5056253;28;20703;-72
2021/11/17 09:15:17;;;;;;;87.50;26.77;;;;;;;;;;5048362;28;20048;-72
2021/11/17 09:17:44;;;;;;;86.22;28.65;;;;;;;;;;5055055;28;20419;-72
2021/11/17 09:20:11;;;;;;;91.07;25.58;;;;;;;;;;5052205;28;20309;-73
2021/11/17 09:22:38;;;;;;;90.38;27.20;;;;;;;;;;5047465;28;20056;-72
2021/11/17 09:25:06;;;;;;;86.97;27.05;;;;;;;;;;5056713;28;20056;-72
2021/11/17 09:27:32;;;;;;;86.20;26.17;;;;;;;;;;5049515;28;20044;-72
2021/11/17 09:29:59;;;;;;;96.05;27.70;;;;;;;;;;5036526;28;20048;-72
2021/11/17 09:32:26;;;;;;;87.38;26.20;;;;;;;;;;5049377;28;20083;-72
2021/11/17 09:34:53;;;;;;;104.25;29.02;;;;;;;;;;5033697;28;20119;-72
2021/11/17 09:37:23;;;;;;;103.47;28.45;;;;;;;;;;5052058;28;20055;-73
2021/11/17 09:39:52;;;;;;;96.93;28.33;;;;;;;;;;5052654;28;20608;-73
2021/11/17 09:42:19;;;;;;;96.88;27.75;;;;;;;;;;5056617;28;20575;-71
2021/11/17 09:44:45;;;;;;;97.28;28.48;;;;;;;;;;5047625;28;20063;-71
2021/11/17 09:47:14;;;;;;;99.65;28.10;;;;;;;;;;5056471;28;20164;-71
2021/11/17 09:49:45;;;;;;;98.93;26.33;;;;;;;;;;5042854;28;20421;-70
2021/11/17 09:52:15;;;;;;;77.45;26.42;;;;;;;;;;5053098;28;20053;-70
2021/11/17 09:54:58;;;;;;;80.93;25.27;;;;;;;;;;5049167;28;20048;-70
2021/11/17 09:57:27;;;;;;;89.80;26.27;;;;;;;;;;5040399;28;20048;-70
2021/11/17 09:59:53;;;;;;;;;;;;;;;;;;5055097;28;20048;-71
2021/11/17 10:02:29;;;;;;;80.28;25.88;;;;;;;;;;5046269;28;19929;-70
2021/11/17 10:05:13;;;;;;;80.88;26.20;;;;;;;;;;5055810;28;20055;-71
2021/11/17 10:13:25;;;;;;;84.32;25.83;;;;;;;;;;5042625;28;20052;-71
2021/11/17 10:15:52;;;;;;;86.95;26.75;;;;;;;;;;5059085;28;20401;-71
2021/11/17 10:18:38;;;;;;;85.28;26.80;;;;;;;;;;5036307;28;20056;-72
2021/11/17 10:21:08;;;;;;;103.30;28.02;;;;;;;;;;5042779;28;20044;-70
2021/11/17 10:23:37;;;;;;;89.35;28.45;;;;;;;;;;5054165;28;20109;-70
2021/11/17 10:26:09;;;;;;;92.10;28.60;;;;;;;;;;5059418;28;20471;-71
2021/11/17 10:28:35;;;;;;;93.78;27.27;;;;;;;;;;5047868;28;20399;-71
2021/11/17 10:31:09;;;;;;;98.45;30.38;;;;;;;;;;5055158;28;20052;-71
2021/11/17 10:33:54;;;;;;;104.13;30.50;;;;;;;;;;5058726;28;20056;-71
2021/11/17 10:36:27;;;;;;;111.82;31.15;;;;;;;;;;5049777;28;20045;-71
2021/11/17 10:39:05;;;;;;;102.03;29.38;;;;;;;;;;5058733;28;20071;-71
2021/11/17 10:41:33;;;;;;;106.07;30.40;;;;;;;;;;5041509;28;20056;-71
2021/11/17 10:44:02;;;;;;;97.43;29.85;;;;;;;;;;5036287;28;20047;-71
2021/11/17 10:46:34;;;;;;;107.50;30.33;;;;;;;;;;5051687;28;20048;-71
2021/11/17 10:49:04;;;;;;;101.65;30.13;;;;;;;;;;5059940;28;20052;-71
2021/11/17 10:51:34;;;;;;;108.03;32.60;;;;;;;;;;5054267;28;20056;-72
2021/11/17 10:54:06;;;;;;;97.57;31.30;;;;;;;;;;5058439;28;20086;-71
2021/11/17 10:56:38;;;;;;;106.53;31.00;;;;;;;;;;5051208;28;20583;-71
2021/11/17 10:59:05;;;;;;;118.40;35.47;;;;;;;;;;5050804;28;20056;-71
2021/11/17 11:01:50;;;;;;;101.40;30.25;;;;;;;;;;5059683;28;20062;-71
2021/11/17 11:04:19;;;;;;;106.97;33.50;;;;;;;;;;5053890;28;20091;-71
2021/11/17 11:06:49;;;;;;;111.10;31.83;;;;;;;;;;5060668;28;20058;-72
2021/11/17 11:09:25;;;;;;;115.70;31.58;;;;;;;;;;5048426;28;21070;-71
2021/11/17 11:11:53;;;;;;;109.07;33.03;;;;;;;;;;5045625;28;20047;-72
2021/11/17 11:14:24;;;;;;;114.38;32.10;;;;;;;;;;5047708;28;20052;-71
2021/11/17 11:17:10;;;;;;;115.22;33.90;;;;;;;;;;5059066;28;20136;-71
2021/11/17 11:19:36;;;;;;;107.85;32.28;;;;;;;;;;5057626;28;20840;-72
2021/11/17 11:22:07;;;;;;;117.88;35.50;;;;;;;;;;5050990;28;20063;-72
2021/11/17 11:24:40;;;;;;;104.25;31.90;;;;;;;;;;5052418;28;20048;-72
2021/11/17 11:27:26;;;;;;;97.35;30.48;;;;;;;;;;5052252;28;20528;-72
2021/11/17 11:30:22;;;;;;;107.97;30.85;;;;;;;;;;5054434;28;20059;-72
2021/11/17 11:32:50;;;;;;;107.53;30.88;;;;;;;;;;5049592;28;20049;-72
2021/11/17 11:35:18;;;;;;;109.03;31.75;;;;;;;;;;5058181;28;20482;-72
2021/11/17 11:37:47;;;;;;;97.88;29.23;;;;;;;;;;5044120;28;20044;-72
2021/11/17 11:40:16;;;;;;;93.72;30.52;;;;;;;;;;5055605;28;20055;-72
2021/11/17 11:42:46;;;;;;;90.55;29.00;;;;;;;;;;5050194;28;20055;-72
2021/11/17 11:45:24;;;;;;;76.55;26.75;;;;;;;;;;5058392;28;20052;-73
2021/11/17 11:47:51;;;;;;;;;;;;;;;;;;5057485;28;20050;-73
2021/11/17 11:50:32;;;;;;;83.45;28.40;;;;;;;;;;5044602;28;20393;-72
2021/11/17 11:53:01;;;;;;;92.50;28.40;;;;;;;;;;5052117;28;20433;-72
2021/11/17 11:55:47;;;;;;;103.65;29.92;;;;;;;;;;5049383;28;20868;-73
2021/11/17 11:58:25;;;;;;;88.75;28.35;;;;;;;;;;5056801;28;20055;-72
2021/11/17 12:01:07;;;;;;;82.78;28.48;;;;;;;;;;5049663;28;20099;-72
2021/11/17 12:03:34;;;;;;;94.32;30.23;;;;;;;;;;5053360;28;20059;-72
2021/11/17 12:06:04;;;;;;;97.97;32.22;;;;;;;;;;5043293;28;20048;-72
2021/11/17 12:08:39;;;;;;;93.10;30.40;;;;;;;;;;5057572;28;20143;-73
2021/11/17 12:11:05;;;;;;;94.95;30.70;;;;;;;;;;5050723;28;20052;-73
2021/11/17 12:13:34;;;;;;;99.53;31.58;;;;;;;;;;5054842;28;20055;-72
2021/11/17 12:16:00;;;;;;;;;;;;;;;;;;5058038;28;20063;-73
2021/11/17 12:18:27;;;;;;;90.93;30.23;;;;;;;;;;5044207;28;19928;-73
2021/11/17 12:20:59;;;;;;;92.22;31.27;;;;;;;;;;5054318;28;20052;-71
2021/11/17 12:23:27;;;;;;;86.80;30.90;;;;;;;;;;5031510;28;20045;-71
2021/11/17 12:26:14;;;;;;;91.63;30.95;;;;;;;;;;5056386;28;20044;-73
2021/11/17 12:28:48;;;;;;;93.28;30.48;;;;;;;;;;5032372;28;20127;-71
2021/11/17 12:31:19;;;;;;;96.85;31.13;;;;;;;;;;5052960;28;20460;-74
2021/11/17 12:33:49;;;;;;;89.57;31.58;;;;;;;;;;5051819;28;20049;-74
2021/11/17 12:36:15;;;;;;;73.15;26.08;;;;;;;;;;5048652;28;20053;-73
2021/11/17 12:38:44;;;;;;;77.25;27.58;;;;;;;;;;5056985;28;20058;-71
2021/11/17 12:41:13;;;;;;;86.53;30.08;;;;;;;;;;5031131;28;20157;-71
2021/11/17 12:43:45;;;;;;;82.60;29.35;;;;;;;;;;5056693;28;20052;-72
2021/11/17 12:46:14;;;;;;;78.72;28.20;;;;;;;;;;5041047;28;20094;-71
2021/11/17 12:48:50;;;;;;;76.43;28.98;;;;;;;;;;5054013;28;20489;-73
2021/11/17 12:51:25;;;;;;;74.05;28.08;;;;;;;;;;5049891;28;20056;-71
2021/11/17 12:53:54;;;;;;;76.30;28.50;;;;;;;;;;5055358;28;20056;-72
2021/11/17 12:56:28;;;;;;;76.50;29.63;;;;;;;;;;5038040;28;20044;-73
2021/11/17 12:59:08;;;;;;;77.00;27.42;;;;;;;;;;5045086;28;20044;-72
2021/11/17 13:01:37;;;;;;;74.15;27.73;;;;;;;;;;5051738;28;20540;-72
2021/11/17 13:04:14;;;;;;;77.28;29.77;;;;;;;;;;5049935;28;20048;-72
2021/11/17 13:06:41;;;;;;;69.20;27.98;;;;;;;;;;5056560;28;20446;-72
2021/11/17 13:09:07;;;;;;;71.85;26.42;;;;;;;;;;5048823;28;20075;-73
2021/11/17 13:11:33;;;;;;;60.65;23.98;;;;;;;;;;5054397;28;20452;-73
2021/11/17 13:14:13;;;;;;;69.78;27.40;;;;;;;;;;5025813;28;20833;-73
2021/11/17 13:16:43;;;;;;;76.68;27.27;;;;;;;;;;5056251;28;20051;-73
2021/11/17 13:19:21;;;;;;;81.72;27.98;;;;;;;;;;5057006;28;20051;-72
2021/11/17 13:21:52;;;;;;;70.90;26.02;;;;;;;;;;5048086;28;20439;-73
2021/11/17 13:24:18;;;;;;;67.75;25.30;;;;;;;;;;5055126;28;20405;-72
2021/11/17 13:27:03;;;;;;;65.47;25.67;;;;;;;;;;5025985;28;20440;-72
2021/11/17 13:29:48;;;;;;;64.20;24.67;;;;;;;;;;5048973;28;20094;-72
2021/11/17 13:32:14;;;;;;;68.88;26.25;;;;;;;;;;5030277;28;20143;-72
2021/11/17 13:34:47;;;;;;;57.83;24.00;;;;;;;;;;5055448;28;20100;-72
2021/11/17 13:37:32;;;;;;;69.45;26.58;;;;;;;;;;5047993;28;20086;-72
2021/11/17 13:40:01;;;;;;;58.75;23.52;;;;;;;;;;5033775;28;20163;-72
2021/11/17 13:42:28;;;;;;;58.03;24.00;;;;;;;;;;5047032;28;20064;-72
2021/11/17 13:44:58;;;;;;;52.28;22.77;;;;;;;;;;5052262;28;20040;-72
2021/11/17 13:47:27;;;;;;;57.08;22.17;;;;;;;;;;5060092;28;20056;-72
2021/11/17 13:49:55;;;;;;;58.90;22.05;;;;;;;;;;5050695;28;20051;-72
2021/11/17 13:52:23;;;;;;;51.83;21.20;;;;;;;;;;5059645;28;20139;-72
2021/11/17 13:54:50;;;;;;;41.88;18.20;;;;;;;;;;5027570;28;20049;-73
2021/11/17 13:57:16;;;;;;;49.00;19.75;;;;;;;;;;5054128;28;20052;-72
2021/11/17 13:59:43;;;;;;;46.20;17.27;;;;;;;;;;5052946;28;20051;-73
2021/11/17 14:02:10;;;;;;;37.58;14.40;;;;;;;;;;5058973;28;20052;-72
2021/11/17 14:04:36;;;;;;;42.85;16.15;;;;;;;;;;5059597;28;20482;-73
2021/11/17 14:07:04;;;;;;;33.08;14.25;;;;;;;;;;5052452;28;20056;-73
2021/11/17 14:09:30;;;;;;;34.97;12.52;;;;;;;;;;5054102;28;20582;-73
2021/11/17 14:11:57;;;;;;;34.40;12.10;;;;;;;;;;5049121;28;20434;-73
2021/11/17 14:14:24;;;;;;;36.08;11.80;;;;;;;;;;5059655;28;20055;-73
2021/11/17 14:16:50;;;;;;;34.90;11.75;;;;;;;;;;5051040;28;20052;-73
2021/11/17 14:19:17;;;;;;;30.60;10.40;;;;;;;;;;5059663;28;20060;-73
2021/11/17 14:21:44;;;;;;;28.27;9.52;;;;;;;;;;5056648;28;20063;-73
2021/11/17 14:24:12;;;;;;;26.70;8.55;;;;;;;;;;5049919;28;20061;-75
2021/11/17 14:26:40;;;;;;;24.17;8.52;;;;;;;;;;5042347;28;20151;-73
2021/11/17 14:29:09;;;;;;;27.00;7.68;;;;;;;;;;5033281;28;20059;-73
2021/11/17 14:31:39;;;;;;;25.40;7.88;;;;;;;;;;5041384;28;20055;-73
2021/11/17 14:34:06;;;;;;;29.02;7.60;;;;;;;;;;5034094;28;20051;-73
2021/11/17 14:36:34;;;;;;;22.10;6.57;;;;;;;;;;5035394;28;20313;-73
2021/11/17 14:39:03;;;;;;;20.90;5.20;;;;;;;;;;5055252;28;20277;-73
2021/11/17 14:41:30;;;;;;;24.17;6.00;;;;;;;;;;5051440;28;20044;-72
2021/11/17 14:43:57;;;;;;;24.58;4.65;;;;;;;;;;5040538;28;20381;-73
2021/11/17 14:46:23;;;;;;;19.70;4.93;;;;;;;;;;5051162;28;20134;-73
2021/11/17 14:48:49;;;;;;;19.80;5.03;;;;;;;;;;5056999;28;20748;-73
2021/11/17 14:51:16;;;;;;;21.10;4.82;;;;;;;;;;5044901;28;20052;-72
2021/11/17 14:53:43;;;;;;;16.20;4.22;;;;;;;;;;5056451;28;20052;-73
2021/11/17 14:56:11;;;;;;;21.80;3.85;;;;;;;;;;5054184;28;20049;-73
2021/11/17 14:58:38;;;;;;;22.08;4.57;;;;;;;;;;5032910;28;20057;-76
2021/11/17 15:01:13;;;;;;;20.00;3.88;;;;;;;;;;5041647;28;20541;-73
2021/11/17 15:03:41;;;;;;;27.70;5.20;;;;;;;;;;5046528;28;20044;-73
2021/11/17 15:06:09;;;;;;;19.48;3.60;;;;;;;;;;5038808;28;21282;-74
2021/11/17 15:08:35;;;;;;;16.33;2.93;;;;;;;;;;5034266;28;20059;-74
2021/11/17 15:11:02;;;;;;;21.02;3.45;;;;;;;;;;5059261;28;20044;-74
2021/11/17 15:13:28;;;;;;;26.67;3.40;;;;;;;;;;5041477;28;20041;-74
2021/11/17 15:15:56;;;;;;;22.27;3.53;;;;;;;;;;5046113;28;20449;-74
2021/11/17 15:18:24;;;;;;;19.65;3.13;;;;;;;;;;5036875;28;20529;-74
2021/11/17 15:20:50;;;;;;;19.83;4.13;;;;;;;;;;5032970;28;20056;-74
2021/11/17 15:23:17;;;;;;;19.77;3.03;;;;;;;;;;5058177;28;20383;-73
2021/11/17 15:25:45;;;;;;;27.42;3.58;;;;;;;;;;5050409;28;20037;-73
2021/11/17 15:28:13;;;;;;;17.55;2.65;;;;;;;;;;5055795;28;20671;-72
2021/11/17 15:30:45;;;;;;;22.77;3.42;;;;;;;;;;5034834;28;20048;-72
2021/11/17 15:33:14;;;;;;;23.48;3.20;;;;;;;;;;5031125;28;20076;-73
2021/11/17 15:35:41;;;;;;;15.05;3.10;;;;;;;;;;5057182;28;20063;-73
2021/11/17 15:38:09;;;;;;;18.00;3.28;;;;;;;;;;5050514;28;20476;-73
2021/11/17 15:40:35;;;;;;;;;;;;;;;;;;5058272;28;20408;-72
2021/11/17 15:43:02;;;;;;;23.52;2.97;;;;;;;;;;5052415;28;20381;-72
2021/11/17 15:45:28;;;;;;;24.63;3.08;;;;;;;;;;5030835;28;20041;-72
2021/11/17 15:47:55;;;;;;;34.63;5.65;;;;;;;;;;5049291;28;20136;-74
2021/11/17 15:50:30;;;;;;;21.52;4.20;;;;;;;;;;5055606;28;21018;-72
2021/11/17 15:52:57;;;;;;;18.95;4.35;;;;;;;;;;5055710;28;20055;-74
2021/11/17 15:55:24;;;;;;;23.30;4.45;;;;;;;;;;5048415;28;20421;-73
2021/11/17 15:57:53;;;;;;;28.27;4.15;;;;;;;;;;5049378;28;20125;-75
2021/11/17 16:00:20;;;;;;;25.85;3.70;;;;;;;;;;5016500;28;20060;-73
2021/11/17 16:02:47;;;;;;;20.92;3.20;;;;;;;;;;5037728;28;20064;-73
2021/11/17 16:05:20;;;;;;;21.55;3.63;;;;;;;;;;5047931;28;20044;-73
2021/11/17 16:07:46;;;;;;;11.38;3.30;;;;;;;;;;5056221;28;20048;-74
2021/11/17 16:10:14;;;;;;;20.42;4.38;;;;;;;;;;5038498;28;20048;-72
2021/11/17 16:12:41;;;;;;;18.02;3.85;;;;;;;;;;5026185;28;20037;-74
2021/11/17 16:15:09;;;;;;;26.20;4.15;;;;;;;;;;5034180;28;20048;-73
2021/11/17 16:17:37;;;;;;;21.08;3.80;;;;;;;;;;5048490;28;20572;-73
2021/11/17 16:20:04;;;;;;;24.40;5.60;;;;;;;;;;5056857;28;20052;-74
2021/11/17 16:22:34;;;;;;;29.95;5.25;;;;;;;;;;5047148;28;20163;-74
2021/11/17 16:27:49;;;;;;;20.37;5.80;;;;;;;;;;5042186;28;20052;-74
2021/11/17 16:30:16;;;;;;;27.40;5.93;;;;;;;;;;5053606;28;20671;-74
2021/11/17 16:32:43;;;;;;;18.70;4.63;;;;;;;;;;5056198;28;20056;-72
2021/11/17 16:35:15;;;;;;;22.50;5.53;;;;;;;;;;5049011;28;20285;-72
2021/11/17 16:37:41;;;;;;;26.95;5.88;;;;;;;;;;5055627;28;20055;-72
2021/11/17 16:40:09;;;;;;;22.98;6.22;;;;;;;;;;5044473;28;20059;-73
2021/11/17 16:42:36;;;;;;;21.85;5.55;;;;;;;;;;5051125;28;20049;-73
2021/11/17 16:45:04;;;;;;;25.25;4.95;;;;;;;;;;5048853;28;20092;-73
2021/11/17 16:47:30;;;;;;;21.90;5.03;;;;;;;;;;5054679;28;20056;-73
2021/11/17 16:49:57;;;;;;;16.33;4.32;;;;;;;;;;5037399;28;20527;-73
2021/11/17 16:52:25;;;;;;;40.25;5.13;;;;;;;;;;5049199;28;20056;-73
2021/11/17 16:54:54;;;;;;;24.45;5.03;;;;;;;;;;5033638;28;20049;-73
2021/11/17 16:57:21;;;;;;;16.92;4.10;;;;;;;;;;5027392;28;20124;-72
2021/11/17 16:59:48;;;;;;;22.70;5.05;;;;;;;;;;5055387;28;20179;-73
2021/11/17 17:02:15;;;;;;;16.42;4.55;;;;;;;;;;5031813;28;20052;-72
2021/11/17 17:04:42;;;;;;;21.55;4.72;;;;;;;;;;5039793;28;20048;-73
2021/11/17 17:07:14;;;;;;;18.80;4.47;;;;;;;;;;5054858;28;20508;-73
2021/11/17 17:09:41;;;;;;;16.10;4.88;;;;;;;;;;5042410;28;20048;-73
2021/11/17 17:12:08;;;;;;;17.05;4.82;;;;;;;;;;5055317;28;20044;-73
2021/11/17 17:14:35;;;;;;;29.77;8.10;;;;;;;;;;5030173;28;20060;-73